sensor_id;sensor_type;location;lat;lon;timestamp;pressure;altitude;pressure_sealevel;temperature;humidity
4617;BME280;2321;42.704;23.384;2023-02-16T00:01:02;96725.06;;;-0.38;nan
4617;BME280;2321;42.704;23.384;2023-02-16T00:03:39;96723.56;;;-0.27;nan
4617;BME280;2321;42.704;23.384;2023-02-16T00:06:06;96720.88;;;-0.26;nan
4617;BME280;2321;42.704;23.384;2023-02-16T00:08:38;96721.97;;;-0.30;nan
4617;BME280;2321;42.704;23.384;2023-02-16T00:11:14;96729.63;;;-0.41;nan
4617;BME280;2321;42.704;23.384;2023-02-16T00:13:59;96721.56;;;-0.53;nan
4617;BME280;2321;42.704;23.384;2023-02-16T00:16:27;96720.03;;;-0.57;nan
4617;BME280;2321;42.704;23.384;2023-02-16T00:18:54;96715.84;;;-0.60;nan
4617;BME280;2321;42.704;23.384;2023-02-16T00:21:21;96716.28;;;-0.68;nan
4617;BME280;2321;42.704;23.384;2023-02-16T00:23:48;96713.25;;;-0.76;nan
4617;BME280;2321;42.704;23.384;2023-02-16T00:26:18;96721.41;;;-0.66;nan
4617;BME280;2321;42.704;23.384;2023-02-16T00:28:45;96719.38;;;-0.61;nan
4617;BME280;2321;42.704;23.384;2023-02-16T00:31:18;96717.13;;;-0.67;nan
4617;BME280;2321;42.704;23.384;2023-02-16T00:33:48;96722.09;;;-0.62;nan
4617;BME280;2321;42.704;23.384;2023-02-16T00:36:15;96723.84;;;-0.63;nan
4617;BME280;2321;42.704;23.384;2023-02-16T00:38:42;96720.25;;;-0.77;nan
4617;BME280;2321;42.704;23.384;2023-02-16T00:41:14;96722.69;;;-0.73;nan
4617;BME280;2321;42.704;23.384;2023-02-16T00:43:58;96727.63;;;-0.83;nan
4617;BME280;2321;42.704;23.384;2023-02-16T00:46:25;96718.03;;;-0.83;nan
4617;BME280;2321;42.704;23.384;2023-02-16T00:48:54;96715.69;;;-0.73;nan
4617;BME280;2321;42.704;23.384;2023-02-16T00:51:21;96715.28;;;-0.65;nan
4617;BME280;2321;42.704;23.384;2023-02-16T00:53:47;96724.38;;;-0.72;nan
4617;BME280;2321;42.704;23.384;2023-02-16T00:56:17;96711.00;;;-0.82;nan
4617;BME280;2321;42.704;23.384;2023-02-16T00:58:46;96717.75;;;-0.78;nan
4617;BME280;2321;42.704;23.384;2023-02-16T01:01:15;96718.09;;;-0.84;nan
4617;BME280;2321;42.704;23.384;2023-02-16T01:03:43;96714.72;;;-0.86;nan
4617;BME280;2321;42.704;23.384;2023-02-16T01:06:11;96710.59;;;-0.91;nan
4617;BME280;2321;42.704;23.384;2023-02-16T01:09:08;96715.56;;;-0.86;nan
4617;BME280;2321;42.704;23.384;2023-02-16T01:11:54;96670.97;;;-0.99;nan
4617;BME280;2321;42.704;23.384;2023-02-16T01:14:21;96709.50;;;-0.86;nan
4617;BME280;2321;42.704;23.384;2023-02-16T01:16:48;96706.22;;;-0.90;nan
4617;BME280;2321;42.704;23.384;2023-02-16T01:19:15;96705.13;;;-0.86;nan
4617;BME280;2321;42.704;23.384;2023-02-16T01:21:44;96698.88;;;-0.83;nan
4617;BME280;2321;42.704;23.384;2023-02-16T01:24:10;96702.41;;;-0.84;nan
4617;BME280;2321;42.704;23.384;2023-02-16T01:26:39;96694.34;;;-0.96;nan
4617;BME280;2321;42.704;23.384;2023-02-16T01:29:12;96686.13;;;-0.90;nan
4617;BME280;2321;42.704;23.384;2023-02-16T01:31:39;96691.66;;;-0.80;nan
4617;BME280;2321;42.704;23.384;2023-02-16T01:34:06;96694.66;;;-0.86;nan
4617;BME280;2321;42.704;23.384;2023-02-16T01:36:35;96691.66;;;-1.11;nan
4617;BME280;2321;42.704;23.384;2023-02-16T01:39:04;96687.59;;;-1.16;nan
4617;BME280;2321;42.704;23.384;2023-02-16T01:41:53;96680.03;;;-1.21;nan
4617;BME280;2321;42.704;23.384;2023-02-16T01:44:23;96682.88;;;-1.10;nan
4617;BME280;2321;42.704;23.384;2023-02-16T01:46:52;96681.63;;;-1.18;nan
4617;BME280;2321;42.704;23.384;2023-02-16T01:49:20;96682.97;;;-1.11;nan
4617;BME280;2321;42.704;23.384;2023-02-16T01:51:52;96665.28;;;-1.22;nan
4617;BME280;2321;42.704;23.384;2023-02-16T01:54:30;96677.50;;;-1.23;nan
4617;BME280;2321;42.704;23.384;2023-02-16T01:57:03;96677.69;;;-1.42;nan
4617;BME280;2321;42.704;23.384;2023-02-16T01:59:40;96677.25;;;-1.34;nan
4617;BME280;2321;42.704;23.384;2023-02-16T02:02:15;96675.25;;;-1.29;nan
4617;BME280;2321;42.704;23.384;2023-02-16T02:04:46;96673.81;;;-1.35;nan
4617;BME280;2321;42.704;23.384;2023-02-16T02:07:38;96675.50;;;-1.34;nan
4617;BME280;2321;42.704;23.384;2023-02-16T02:10:12;96673.38;;;-1.43;nan
4617;BME280;2321;42.704;23.384;2023-02-16T02:12:48;96659.84;;;-1.66;nan
4617;BME280;2321;42.704;23.384;2023-02-16T02:15:20;96671.28;;;-1.52;nan
4617;BME280;2321;42.704;23.384;2023-02-16T02:17:49;96680.56;;;-1.63;nan
4617;BME280;2321;42.704;23.384;2023-02-16T02:20:21;96671.97;;;-1.65;nan
4617;BME280;2321;42.704;23.384;2023-02-16T02:23:34;96671.38;;;-1.70;nan
4617;BME280;2321;42.704;23.384;2023-02-16T02:29:27;96670.84;;;-1.77;nan
4617;BME280;2321;42.704;23.384;2023-02-16T02:32:03;96667.41;;;-1.78;nan
4617;BME280;2321;42.704;23.384;2023-02-16T02:34:42;96664.53;;;-1.89;nan
4617;BME280;2321;42.704;23.384;2023-02-16T02:37:20;96664.72;;;-1.76;nan
4617;BME280;2321;42.704;23.384;2023-02-16T02:39:57;96667.41;;;-1.78;nan
4617;BME280;2321;42.704;23.384;2023-02-16T02:42:32;96667.81;;;-1.86;nan
4617;BME280;2321;42.704;23.384;2023-02-16T02:45:06;96662.84;;;-1.74;nan
4617;BME280;2321;42.704;23.384;2023-02-16T02:47:38;96667.56;;;-1.81;nan
4617;BME280;2321;42.704;23.384;2023-02-16T02:50:40;96661.84;;;-1.88;nan
4617;BME280;2321;42.704;23.384;2023-02-16T02:53:29;96662.50;;;-2.00;nan
4617;BME280;2321;42.704;23.384;2023-02-16T02:55:58;96671.34;;;-2.03;nan
4617;BME280;2321;42.704;23.384;2023-02-16T02:58:53;96673.13;;;-2.03;nan
4617;BME280;2321;42.704;23.384;2023-02-16T03:01:45;96677.00;;;-1.94;nan
4617;BME280;2321;42.704;23.384;2023-02-16T03:04:16;96677.84;;;-1.94;nan
4617;BME280;2321;42.704;23.384;2023-02-16T03:06:47;96666.63;;;-1.96;nan
4617;BME280;2321;42.704;23.384;2023-02-16T03:09:16;96677.91;;;-1.95;nan
4617;BME280;2321;42.704;23.384;2023-02-16T03:11:45;96670.44;;;-1.86;nan
4617;BME280;2321;42.704;23.384;2023-02-16T03:14:33;96666.72;;;-1.98;nan
4617;BME280;2321;42.704;23.384;2023-02-16T03:17:06;96670.88;;;-1.93;nan
4617;BME280;2321;42.704;23.384;2023-02-16T03:19:52;96671.06;;;-2.14;nan
4617;BME280;2321;42.704;23.384;2023-02-16T03:22:38;96671.50;;;-2.06;nan
4617;BME280;2321;42.704;23.384;2023-02-16T03:25:25;96676.56;;;-2.03;nan
4617;BME280;2321;42.704;23.384;2023-02-16T03:28:12;96672.53;;;-1.92;nan
4617;BME280;2321;42.704;23.384;2023-02-16T03:30:58;96653.16;;;-2.04;nan
4617;BME280;2321;42.704;23.384;2023-02-16T03:33:28;96670.09;;;-1.95;nan
4617;BME280;2321;42.704;23.384;2023-02-16T03:35:56;96663.84;;;-1.93;nan
4617;BME280;2321;42.704;23.384;2023-02-16T03:38:24;96663.00;;;-2.10;nan
4617;BME280;2321;42.704;23.384;2023-02-16T03:40:51;96665.50;;;-2.08;nan
4617;BME280;2321;42.704;23.384;2023-02-16T03:43:18;96659.38;;;-2.07;nan
4617;BME280;2321;42.704;23.384;2023-02-16T03:45:45;96667.22;;;-2.07;nan
4617;BME280;2321;42.704;23.384;2023-02-16T03:48:12;96666.88;;;-2.01;nan
4617;BME280;2321;42.704;23.384;2023-02-16T03:50:40;96673.44;;;-2.10;nan
4617;BME280;2321;42.704;23.384;2023-02-16T03:53:07;96673.34;;;-2.08;nan
4617;BME280;2321;42.704;23.384;2023-02-16T03:55:35;96675.78;;;-2.21;nan
4617;BME280;2321;42.704;23.384;2023-02-16T03:58:03;96669.28;;;-2.30;nan
4617;BME280;2321;42.704;23.384;2023-02-16T04:00:30;96659.75;;;-2.31;nan
4617;BME280;2321;42.704;23.384;2023-02-16T04:02:57;96673.19;;;-2.39;nan
4617;BME280;2321;42.704;23.384;2023-02-16T04:05:24;96675.63;;;-2.36;nan
4617;BME280;2321;42.704;23.384;2023-02-16T04:07:53;96667.53;;;-2.47;nan
4617;BME280;2321;42.704;23.384;2023-02-16T04:10:20;96660.22;;;-2.41;nan
4617;BME280;2321;42.704;23.384;2023-02-16T04:12:47;96654.84;;;-2.37;nan
4617;BME280;2321;42.704;23.384;2023-02-16T04:15:16;96658.53;;;-2.42;nan
4617;BME280;2321;42.704;23.384;2023-02-16T04:17:44;96657.72;;;-2.60;nan
4617;BME280;2321;42.704;23.384;2023-02-16T04:20:13;96660.94;;;-2.55;nan
4617;BME280;2321;42.704;23.384;2023-02-16T04:22:41;96664.38;;;-2.54;nan
4617;BME280;2321;42.704;23.384;2023-02-16T04:25:10;96662.94;;;-2.60;nan
4617;BME280;2321;42.704;23.384;2023-02-16T04:27:38;96653.44;;;-2.61;nan
4617;BME280;2321;42.704;23.384;2023-02-16T04:30:07;96655.41;;;-2.66;nan
4617;BME280;2321;42.704;23.384;2023-02-16T04:32:34;96650.81;;;-2.79;nan
4617;BME280;2321;42.704;23.384;2023-02-16T04:35:01;96664.25;;;-2.87;nan
4617;BME280;2321;42.704;23.384;2023-02-16T04:37:28;96661.78;;;-3.08;nan
4617;BME280;2321;42.704;23.384;2023-02-16T04:39:55;96666.06;;;-3.07;nan
4617;BME280;2321;42.704;23.384;2023-02-16T04:42:24;96667.00;;;-3.08;nan
4617;BME280;2321;42.704;23.384;2023-02-16T04:44:51;96665.47;;;-3.12;nan
4617;BME280;2321;42.704;23.384;2023-02-16T04:47:18;96671.91;;;-3.19;nan
4617;BME280;2321;42.704;23.384;2023-02-16T04:49:44;96670.97;;;-3.18;nan
4617;BME280;2321;42.704;23.384;2023-02-16T04:52:12;96657.66;;;-3.12;nan
4617;BME280;2321;42.704;23.384;2023-02-16T04:54:40;96672.56;;;-3.15;nan
4617;BME280;2321;42.704;23.384;2023-02-16T04:57:08;96674.38;;;-3.16;nan
4617;BME280;2321;42.704;23.384;2023-02-16T04:59:36;96674.72;;;-3.24;nan
4617;BME280;2321;42.704;23.384;2023-02-16T05:02:04;96656.38;;;-3.40;nan
4617;BME280;2321;42.704;23.384;2023-02-16T05:04:31;96673.56;;;-3.36;nan
4617;BME280;2321;42.704;23.384;2023-02-16T05:06:58;96673.09;;;-3.26;nan
4617;BME280;2321;42.704;23.384;2023-02-16T05:09:25;96679.16;;;-3.26;nan
4617;BME280;2321;42.704;23.384;2023-02-16T05:11:52;96676.31;;;-3.21;nan
4617;BME280;2321;42.704;23.384;2023-02-16T05:14:38;96677.63;;;-3.12;nan
4617;BME280;2321;42.704;23.384;2023-02-16T05:17:08;96681.19;;;-3.13;nan
4617;BME280;2321;42.704;23.384;2023-02-16T05:19:35;96685.91;;;-3.22;nan
4617;BME280;2321;42.704;23.384;2023-02-16T05:22:02;96685.13;;;-3.24;nan
4617;BME280;2321;42.704;23.384;2023-02-16T05:24:29;96691.19;;;-3.23;nan
4617;BME280;2321;42.704;23.384;2023-02-16T05:26:56;96683.69;;;-3.30;nan
4617;BME280;2321;42.704;23.384;2023-02-16T05:29:23;96687.28;;;-3.32;nan
4617;BME280;2321;42.704;23.384;2023-02-16T05:31:51;96690.34;;;-3.24;nan
4617;BME280;2321;42.704;23.384;2023-02-16T05:34:18;96698.03;;;-3.21;nan
4617;BME280;2321;42.704;23.384;2023-02-16T05:36:45;96693.66;;;-3.20;nan
4617;BME280;2321;42.704;23.384;2023-02-16T05:39:12;96697.31;;;-3.24;nan
4617;BME280;2321;42.704;23.384;2023-02-16T05:41:39;96693.22;;;-3.11;nan
4617;BME280;2321;42.704;23.384;2023-02-16T05:44:06;96702.34;;;-3.02;nan
4617;BME280;2321;42.704;23.384;2023-02-16T05:46:36;96705.84;;;-3.03;nan
4617;BME280;2321;42.704;23.384;2023-02-16T05:49:05;96695.94;;;-2.94;nan
4617;BME280;2321;42.704;23.384;2023-02-16T05:51:33;96698.75;;;-2.81;nan
4617;BME280;2321;42.704;23.384;2023-02-16T05:54:01;96700.00;;;-2.71;nan
4617;BME280;2321;42.704;23.384;2023-02-16T05:56:28;96706.72;;;-2.67;nan
4617;BME280;2321;42.704;23.384;2023-02-16T05:58:56;96708.03;;;-2.76;nan
4617;BME280;2321;42.704;23.384;2023-02-16T06:01:23;96704.13;;;-2.85;nan
4617;BME280;2321;42.704;23.384;2023-02-16T06:03:50;96701.16;;;-2.77;nan
4617;BME280;2321;42.704;23.384;2023-02-16T06:06:18;96711.63;;;-2.78;nan
4617;BME280;2321;42.704;23.384;2023-02-16T06:08:45;96712.22;;;-2.91;nan
4617;BME280;2321;42.704;23.384;2023-02-16T06:11:12;96718.97;;;-3.04;nan
4617;BME280;2321;42.704;23.384;2023-02-16T06:13:53;96724.63;;;-3.14;nan
4617;BME280;2321;42.704;23.384;2023-02-16T06:16:24;96724.06;;;-3.21;nan
4617;BME280;2321;42.704;23.384;2023-02-16T06:18:51;96729.00;;;-3.14;nan
4617;BME280;2321;42.704;23.384;2023-02-16T06:21:20;96720.31;;;-3.15;nan
4617;BME280;2321;42.704;23.384;2023-02-16T06:23:47;96733.06;;;-3.09;nan
4617;BME280;2321;42.704;23.384;2023-02-16T06:26:15;96739.69;;;-3.01;nan
4617;BME280;2321;42.704;23.384;2023-02-16T06:28:43;62246.03;;;20.91;100.00
4617;BME280;2321;42.704;23.384;2023-02-16T06:31:10;96731.63;;;-2.97;nan
4617;BME280;2321;42.704;23.384;2023-02-16T06:36:05;62246.03;;;-150.68;100.00
4617;BME280;2321;42.704;23.384;2023-02-16T06:43:26;62246.03;;;20.91;100.00
4617;BME280;2321;42.704;23.384;2023-02-16T06:45:53;62246.03;;;20.91;100.00
4617;BME280;2321;42.704;23.384;2023-02-16T06:48:20;62246.03;;;20.91;100.00
4617;BME280;2321;42.704;23.384;2023-02-16T06:50:47;62246.03;;;20.91;100.00
4617;BME280;2321;42.704;23.384;2023-02-16T06:53:14;62246.03;;;20.91;100.00
4617;BME280;2321;42.704;23.384;2023-02-16T06:55:43;62246.03;;;20.91;100.00
4617;BME280;2321;42.704;23.384;2023-02-16T07:10:23;96760.97;;;-1.86;nan
4617;BME280;2321;42.704;23.384;2023-02-16T07:12:51;96734.47;;;-1.78;nan
4617;BME280;2321;42.704;23.384;2023-02-16T07:15:18;96727.50;;;-1.61;nan
4617;BME280;2321;42.704;23.384;2023-02-16T07:17:45;96726.75;;;-1.47;nan
4617;BME280;2321;42.704;23.384;2023-02-16T07:20:12;96717.81;;;-1.27;nan
4617;BME280;2321;42.704;23.384;2023-02-16T07:22:39;96715.09;;;-1.09;nan
4617;BME280;2321;42.704;23.384;2023-02-16T07:25:06;96713.50;;;-0.95;nan
4617;BME280;2321;42.704;23.384;2023-02-16T07:27:33;96713.59;;;-0.82;nan
4617;BME280;2321;42.704;23.384;2023-02-16T07:30:02;96720.84;;;-0.71;nan
4617;BME280;2321;42.704;23.384;2023-02-16T07:32:29;96709.94;;;-0.63;nan
4617;BME280;2321;42.704;23.384;2023-02-16T07:34:56;96708.19;;;-0.48;nan
4617;BME280;2321;42.704;23.384;2023-02-16T07:37:23;96717.09;;;-0.36;nan
4617;BME280;2321;42.704;23.384;2023-02-16T07:39:50;96680.63;;;-0.39;nan
4617;BME280;2321;42.704;23.384;2023-02-16T07:42:18;96707.59;;;-0.08;nan
4617;BME280;2321;42.704;23.384;2023-02-16T07:44:45;96705.09;;;0.05;nan
4617;BME280;2321;42.704;23.384;2023-02-16T07:47:13;96708.81;;;0.16;nan
4617;BME280;2321;42.704;23.384;2023-02-16T07:49:40;96712.56;;;0.26;nan
4617;BME280;2321;42.704;23.384;2023-02-16T07:52:07;96712.53;;;0.41;nan
4617;BME280;2321;42.704;23.384;2023-02-16T07:54:34;96766.22;;;0.78;nan
4617;BME280;2321;42.704;23.384;2023-02-16T07:57:02;96715.59;;;0.62;nan
4617;BME280;2321;42.704;23.384;2023-02-16T07:59:29;96708.00;;;0.72;nan
4617;BME280;2321;42.704;23.384;2023-02-16T08:01:56;96708.69;;;0.89;nan
4617;BME280;2321;42.704;23.384;2023-02-16T08:04:25;96720.59;;;0.95;nan
4617;BME280;2321;42.704;23.384;2023-02-16T08:06:51;96717.34;;;1.04;nan
4617;BME280;2321;42.704;23.384;2023-02-16T08:09:18;96711.50;;;1.14;nan
4617;BME280;2321;42.704;23.384;2023-02-16T08:11:45;96706.59;;;1.22;nan
4617;BME280;2321;42.704;23.384;2023-02-16T08:14:14;96710.72;;;1.39;nan
4617;BME280;2321;42.704;23.384;2023-02-16T08:16:41;96720.94;;;1.44;nan
4617;BME280;2321;42.704;23.384;2023-02-16T08:19:08;96715.81;;;1.56;nan
4617;BME280;2321;42.704;23.384;2023-02-16T08:21:38;96718.13;;;1.73;nan
4617;BME280;2321;42.704;23.384;2023-02-16T08:24:07;96725.81;;;1.90;nan
4617;BME280;2321;42.704;23.384;2023-02-16T08:26:36;96722.16;;;1.92;nan
4617;BME280;2321;42.704;23.384;2023-02-16T08:29:05;96719.28;;;2.09;nan
4617;BME280;2321;42.704;23.384;2023-02-16T08:31:34;96721.06;;;2.21;nan
4617;BME280;2321;42.704;23.384;2023-02-16T08:34:03;96727.47;;;2.43;nan
4617;BME280;2321;42.704;23.384;2023-02-16T08:36:32;96720.72;;;2.52;nan
4617;BME280;2321;42.704;23.384;2023-02-16T08:39:02;96721.03;;;2.60;nan
4617;BME280;2321;42.704;23.384;2023-02-16T08:41:31;96721.81;;;2.74;nan
4617;BME280;2321;42.704;23.384;2023-02-16T08:44:01;96722.25;;;2.68;nan
4617;BME280;2321;42.704;23.384;2023-02-16T08:46:28;96723.28;;;2.78;nan
4617;BME280;2321;42.704;23.384;2023-02-16T08:48:57;96713.50;;;2.80;nan
4617;BME280;2321;42.704;23.384;2023-02-16T08:51:26;96712.81;;;2.90;nan
4617;BME280;2321;42.704;23.384;2023-02-16T08:53:54;96714.34;;;3.05;nan
4617;BME280;2321;42.704;23.384;2023-02-16T08:56:22;96717.28;;;3.25;nan
4617;BME280;2321;42.704;23.384;2023-02-16T08:58:50;96708.38;;;3.40;nan
4617;BME280;2321;42.704;23.384;2023-02-16T09:01:17;96723.38;;;3.51;nan
4617;BME280;2321;42.704;23.384;2023-02-16T09:03:47;96699.56;;;3.52;nan
4617;BME280;2321;42.704;23.384;2023-02-16T09:06:15;96713.28;;;3.80;nan
4617;BME280;2321;42.704;23.384;2023-02-16T09:08:44;96711.75;;;3.89;nan
4617;BME280;2321;42.704;23.384;2023-02-16T09:11:17;96707.81;;;4.07;nan
4617;BME280;2321;42.704;23.384;2023-02-16T09:13:46;96710.34;;;4.20;nan
4617;BME280;2321;42.704;23.384;2023-02-16T09:16:15;96713.69;;;4.22;nan
4617;BME280;2321;42.704;23.384;2023-02-16T09:18:42;96709.88;;;4.38;nan
4617;BME280;2321;42.704;23.384;2023-02-16T09:21:12;96707.34;;;4.47;nan
4617;BME280;2321;42.704;23.384;2023-02-16T09:23:43;96712.72;;;4.46;nan
4617;BME280;2321;42.704;23.384;2023-02-16T09:26:11;96708.41;;;4.45;nan
4617;BME280;2321;42.704;23.384;2023-02-16T09:28:40;96703.25;;;4.43;nan
4617;BME280;2321;42.704;23.384;2023-02-16T09:31:12;96698.09;;;4.53;nan
4617;BME280;2321;42.704;23.384;2023-02-16T09:33:40;96700.94;;;4.73;nan
4617;BME280;2321;42.704;23.384;2023-02-16T09:36:10;96694.44;;;4.89;nan
4617;BME280;2321;42.704;23.384;2023-02-16T09:38:38;96689.84;;;5.03;nan
4617;BME280;2321;42.704;23.384;2023-02-16T09:41:07;96691.09;;;5.20;nan
4617;BME280;2321;42.704;23.384;2023-02-16T09:43:43;96684.91;;;5.31;nan
4617;BME280;2321;42.704;23.384;2023-02-16T09:46:15;96684.91;;;5.42;nan
4617;BME280;2321;42.704;23.384;2023-02-16T09:48:45;96674.00;;;5.57;nan
4617;BME280;2321;42.704;23.384;2023-02-16T09:51:17;96673.81;;;5.70;nan
4617;BME280;2321;42.704;23.384;2023-02-16T09:53:49;96669.81;;;5.76;nan
4617;BME280;2321;42.704;23.384;2023-02-16T09:56:24;96661.09;;;5.85;nan
4617;BME280;2321;42.704;23.384;2023-02-16T09:58:56;96666.94;;;5.89;nan
4617;BME280;2321;42.704;23.384;2023-02-16T10:01:29;96656.84;;;6.04;nan
4617;BME280;2321;42.704;23.384;2023-02-16T10:04:07;96651.06;;;6.10;nan
4617;BME280;2321;42.704;23.384;2023-02-16T10:06:52;96655.13;;;6.15;nan
4617;BME280;2321;42.704;23.384;2023-02-16T10:09:25;96646.63;;;6.11;nan
4617;BME280;2321;42.704;23.384;2023-02-16T10:11:57;96651.66;;;6.14;nan
4617;BME280;2321;42.704;23.384;2023-02-16T10:14:31;96646.94;;;6.18;nan
4617;BME280;2321;42.704;23.384;2023-02-16T10:17:07;96645.97;;;6.19;nan
4617;BME280;2321;42.704;23.384;2023-02-16T10:19:40;96636.00;;;6.32;nan
4617;BME280;2321;42.704;23.384;2023-02-16T10:22:12;96635.59;;;6.37;nan
4617;BME280;2321;42.704;23.384;2023-02-16T10:24:46;96628.50;;;6.38;nan
4617;BME280;2321;42.704;23.384;2023-02-16T10:27:17;96633.81;;;6.48;nan
4617;BME280;2321;42.704;23.384;2023-02-16T10:29:45;96633.13;;;6.65;nan
4617;BME280;2321;42.704;23.384;2023-02-16T10:32:21;96631.91;;;6.80;nan
4617;BME280;2321;42.704;23.384;2023-02-16T10:34:54;96623.84;;;6.91;nan
4617;BME280;2321;42.704;23.384;2023-02-16T10:37:38;96615.75;;;7.03;nan
4617;BME280;2321;42.704;23.384;2023-02-16T10:40:20;96618.13;;;7.16;nan
4617;BME280;2321;42.704;23.384;2023-02-16T10:42:51;96616.44;;;7.25;nan
4617;BME280;2321;42.704;23.384;2023-02-16T10:45:24;96614.19;;;7.40;nan
4617;BME280;2321;42.704;23.384;2023-02-16T10:47:54;96609.63;;;7.42;nan
4617;BME280;2321;42.704;23.384;2023-02-16T10:50:24;96602.34;;;7.54;nan
4617;BME280;2321;42.704;23.384;2023-02-16T10:52:56;96606.31;;;7.78;nan
4617;BME280;2321;42.704;23.384;2023-02-16T10:55:23;96604.59;;;7.97;nan
4617;BME280;2321;42.704;23.384;2023-02-16T10:57:53;96600.34;;;8.04;nan
4617;BME280;2321;42.704;23.384;2023-02-16T11:00:24;96600.44;;;8.13;nan
4617;BME280;2321;42.704;23.384;2023-02-16T11:02:55;96595.66;;;8.26;nan
4617;BME280;2321;42.704;23.384;2023-02-16T11:05:31;96596.88;;;8.32;nan
4617;BME280;2321;42.704;23.384;2023-02-16T11:08:00;96589.75;;;8.33;nan
4617;BME280;2321;42.704;23.384;2023-02-16T11:10:36;96579.59;;;8.46;nan
4617;BME280;2321;42.704;23.384;2023-02-16T11:13:04;96582.47;;;8.63;nan
4617;BME280;2321;42.704;23.384;2023-02-16T11:15:38;96569.50;;;8.78;nan
4617;BME280;2321;42.704;23.384;2023-02-16T11:18:31;96574.66;;;8.98;nan
4617;BME280;2321;42.704;23.384;2023-02-16T11:20:59;96571.25;;;9.06;nan
4617;BME280;2321;42.704;23.384;2023-02-16T11:23:29;96568.81;;;9.13;nan
4617;BME280;2321;42.704;23.384;2023-02-16T11:25:59;96562.25;;;9.25;nan
4617;BME280;2321;42.704;23.384;2023-02-16T11:28:30;96566.25;;;9.30;nan
4617;BME280;2321;42.704;23.384;2023-02-16T11:31:14;96560.91;;;9.48;nan
4617;BME280;2321;42.704;23.384;2023-02-16T11:33:54;96557.84;;;9.61;nan
4617;BME280;2321;42.704;23.384;2023-02-16T11:36:31;96554.44;;;9.77;nan
4617;BME280;2321;42.704;23.384;2023-02-16T11:39:02;96546.50;;;9.86;nan
4617;BME280;2321;42.704;23.384;2023-02-16T11:41:30;96543.84;;;9.94;nan
4617;BME280;2321;42.704;23.384;2023-02-16T11:43:59;96543.75;;;10.04;nan
4617;BME280;2321;42.704;23.384;2023-02-16T11:46:28;96543.28;;;10.09;nan
4617;BME280;2321;42.704;23.384;2023-02-16T11:49:27;96545.00;;;10.27;nan
4617;BME280;2321;42.704;23.384;2023-02-16T11:51:55;96526.69;;;10.23;nan
4617;BME280;2321;42.704;23.384;2023-02-16T11:54:22;96533.00;;;10.31;nan
4617;BME280;2321;42.704;23.384;2023-02-16T11:57:03;96533.00;;;10.31;nan
4617;BME280;2321;42.704;23.384;2023-02-16T11:59:34;96529.69;;;10.29;nan
4617;BME280;2321;42.704;23.384;2023-02-16T12:02:37;96525.84;;;10.23;nan
4617;BME280;2321;42.704;23.384;2023-02-16T12:05:23;96516.56;;;10.27;nan
4617;BME280;2321;42.704;23.384;2023-02-16T12:08:03;96513.56;;;10.30;nan
4617;BME280;2321;42.704;23.384;2023-02-16T12:10:37;96506.75;;;10.44;nan
4617;BME280;2321;42.704;23.384;2023-02-16T12:13:16;96508.31;;;10.64;nan
4617;BME280;2321;42.704;23.384;2023-02-16T12:15:47;96501.84;;;10.75;nan
4617;BME280;2321;42.704;23.384;2023-02-16T12:18:26;96494.66;;;10.92;nan
4617;BME280;2321;42.704;23.384;2023-02-16T12:21:02;96492.00;;;11.00;nan
4617;BME280;2321;42.704;23.384;2023-02-16T12:23:40;96490.00;;;11.11;nan
4617;BME280;2321;42.704;23.384;2023-02-16T12:26:34;96483.47;;;11.14;nan
4617;BME280;2321;42.704;23.384;2023-02-16T12:29:12;96481.16;;;11.10;nan
4617;BME280;2321;42.704;23.384;2023-02-16T12:31:56;96478.16;;;11.22;nan
4617;BME280;2321;42.704;23.384;2023-02-16T12:34:37;96480.81;;;11.30;nan
4617;BME280;2321;42.704;23.384;2023-02-16T12:37:16;96476.09;;;11.41;nan
4617;BME280;2321;42.704;23.384;2023-02-16T12:39:53;96468.94;;;11.41;nan
4617;BME280;2321;42.704;23.384;2023-02-16T12:42:44;96471.09;;;11.46;nan
4617;BME280;2321;42.704;23.384;2023-02-16T12:45:18;96463.59;;;11.41;nan
4617;BME280;2321;42.704;23.384;2023-02-16T12:47:48;96461.13;;;11.40;nan
4617;BME280;2321;42.704;23.384;2023-02-16T12:50:20;96454.91;;;11.48;nan
4617;BME280;2321;42.704;23.384;2023-02-16T12:52:52;96455.59;;;11.50;nan
4617;BME280;2321;42.704;23.384;2023-02-16T12:55:25;96451.06;;;11.50;nan
4617;BME280;2321;42.704;23.384;2023-02-16T12:57:58;96452.06;;;11.58;nan
4617;BME280;2321;42.704;23.384;2023-02-16T13:00:34;96440.59;;;11.49;nan
4617;BME280;2321;42.704;23.384;2023-02-16T13:03:14;96445.75;;;11.50;nan
4617;BME280;2321;42.704;23.384;2023-02-16T13:05:46;96435.41;;;11.47;nan
4617;BME280;2321;42.704;23.384;2023-02-16T13:08:21;96437.75;;;11.50;nan
4617;BME280;2321;42.704;23.384;2023-02-16T13:10:55;96434.88;;;11.60;nan
4617;BME280;2321;42.704;23.384;2023-02-16T13:13:26;96434.53;;;11.63;nan
4617;BME280;2321;42.704;23.384;2023-02-16T13:16:00;96436.00;;;11.66;nan
4617;BME280;2321;42.704;23.384;2023-02-16T13:18:31;96424.94;;;11.77;nan
4617;BME280;2321;42.704;23.384;2023-02-16T13:21:02;96424.94;;;11.86;nan
4617;BME280;2321;42.704;23.384;2023-02-16T13:23:58;96416.38;;;11.91;nan
4617;BME280;2321;42.704;23.384;2023-02-16T13:26:43;96420.88;;;11.98;nan
4617;BME280;2321;42.704;23.384;2023-02-16T13:29:30;96411.47;;;12.03;nan
4617;BME280;2321;42.704;23.384;2023-02-16T13:32:08;96412.25;;;12.12;nan
4617;BME280;2321;42.704;23.384;2023-02-16T13:35:07;96413.94;;;12.13;nan
4617;BME280;2321;42.704;23.384;2023-02-16T13:37:56;96406.44;;;12.16;nan
4617;BME280;2321;42.704;23.384;2023-02-16T13:41:05;96410.09;;;12.15;nan
4617;BME280;2321;42.704;23.384;2023-02-16T13:43:35;96401.41;;;12.13;nan
4617;BME280;2321;42.704;23.384;2023-02-16T13:46:12;96402.41;;;12.12;nan
4617;BME280;2321;42.704;23.384;2023-02-16T13:48:45;96402.22;;;12.22;nan
4617;BME280;2321;42.704;23.384;2023-02-16T13:51:15;96400.25;;;12.16;nan
4617;BME280;2321;42.704;23.384;2023-02-16T13:53:51;96397.59;;;12.16;nan
4617;BME280;2321;42.704;23.384;2023-02-16T13:56:32;96395.91;;;12.15;nan
4617;BME280;2321;42.704;23.384;2023-02-16T14:02:53;96397.75;;;12.14;nan
4617;BME280;2321;42.704;23.384;2023-02-16T14:05:37;96396.75;;;12.15;nan
4617;BME280;2321;42.704;23.384;2023-02-16T14:08:18;96401.09;;;12.16;nan
4617;BME280;2321;42.704;23.384;2023-02-16T14:11:05;96392.41;;;12.14;nan
4617;BME280;2321;42.704;23.384;2023-02-16T14:13:44;96388.75;;;12.15;nan
4617;BME280;2321;42.704;23.384;2023-02-16T14:16:26;96392.91;;;12.18;nan
4617;BME280;2321;42.704;23.384;2023-02-16T14:18:55;96383.06;;;12.18;nan
4617;BME280;2321;42.704;23.384;2023-02-16T14:21:31;96382.69;;;12.22;nan
4617;BME280;2321;42.704;23.384;2023-02-16T14:24:00;96377.56;;;12.20;nan
4617;BME280;2321;42.704;23.384;2023-02-16T14:26:28;96386.75;;;12.09;nan
4617;BME280;2321;42.704;23.384;2023-02-16T14:29:09;96375.50;;;11.98;nan